Highland, OH (45132)

5:51 AM EST on December 10, 2016 (GMT -0500)
Hillsboro | | Change Station

Elev 1102 ft 39.21 °N, 83.60 °W | Updated 6 seconds ago

Overcast
Overcast
20.3 °F
Feels Like 13 °F
N
5.8
Wind Variable Wind from West
Gusts 5.8 mph

Today
High -- | Low -- °F
--% Chance of Precip.
Yesterday
High -- | Low -- °F
Precip. -- in
Pressure 30.61 in
Visibility 10.0 miles
Clouds Overcast 3300 ft
Windchill 13 °F
Dew Point 15 °F
Humidity 80%
Rainfall 0.00 in
Snow Depth Not available.
7:43 AM 5:11 PM
Waxing Gibbous, 82% visible
METAR KILN 100954Z AUTO 25007KT 10SM OVC033 M06/M09 A3050 RMK AO2 SNE32 SLP363 P0000 T10611089
Pressure 30.61 in
Visibility 10.0 miles
Clouds Overcast 3300 ft
Windchill 13 °F
Dew Point 15 °F
Humidity 80%
Rainfall 0.00 in
Snow Depth Not available.
7:43 AM 5:11 PM
Waxing Gibbous, 82% visible
METAR KILN 100954Z AUTO 25007KT 10SM OVC033 M06/M09 A3050 RMK AO2 SNE32 SLP363 P0000 T10611089

10-Day Weather Forecast

Almanac

Astronomy

Dec. 10, 2016 Rise Set
Actual Time
Civil Twilight
Nautical Twilight
Astronomical Twilight
Moon
Length of Visible Light
Length of Day
Tomorrow will be .
, % of the Moon is Illuminated

Today's Extremes

State Highs State Lows

Community

WunderPhotos

Upload Photos

1,956,536 photos uploaded!

WunderBlog® & News

Nearby

Air Quality

  Air Quality AQ Index Pollutant
Not available.

Snow Depth

Station Depth Elevation

Earthquake Activity

City Distance Mag. Time & Date
Minimum magnitude displayed is 2.5.

Coastal Water Temperatures

Place Temperature

Stations

Nearby Weather Stations

Station Location Temp. Windchill Dew Point Humidity Wind Precip. Elev Updated Type
                   

Watches & Warnings

There are currently no watches in effect.